Latest Weather Observations for Amberley

IDQ60801

Issued at 3:32 pm EST Friday 20 January 2017 (issued every 30 minutes, with the page automatically refreshed every 10 minutes)

About weather observations | Map of weather stations | Latest weather observations for QLD | Other Formats
Station Details ID: 040004 Name: AMBERLEY AMO Lat: -27.63 Lon: 152.71 Height: 24.2 m
Data from the previous 72 hours. | See also: Recent months at Amberley
Date/Time
EST
Temp
°C
App
Temp
°C
Dew
Point
°C
Rel
Hum
%
Delta-T
°C
Wind Press
QNH
hPa
Press
MSL
hPa
Rain since
9am
mm
Dir  Spd
km/h
Gust
km/h
Spd
kts
Gust
kts
20/03:30pm 34.7 35.5 21.3 45 9.1 N 19 30 10 16 1001.8 1001.6 0.0
20/03:00pm 34.2 35.3 21.2 46 8.8 N 17 30 9 16 1002.3 1002.1 0.0
20/02:30pm 33.6 34.1 21.2 48 8.4 N 20 30 11 16 1002.9 1002.7 0.0
20/02:00pm 33.5 34.3 21.4 49 8.2 NNW 19 32 10 17 1003.4 1003.2 0.0
20/01:30pm 33.2 35.1 21.4 50 8.0 NNW 13 24 7 13 1004.3 1004.1 0.0
20/01:00pm 33.4 34.4 21.8 50 7.9 NNW 19 30 10 16 1004.9 1004.7 0.0
20/12:30pm 31.3 31.7 20.7 53 7.1 NNW 19 30 10 16 1005.5 1005.3 0.0
20/12:00pm 31.4 32.8 21.0 54 7.0 NW 15 19 8 10 1006.3 1006.1 0.0
20/11:30am 31.5 32.7 21.4 55 6.8 NW 17 24 9 13 1007.0 1006.8 0.0
20/11:00am 31.2 32.4 21.4 56 6.6 NW 17 26 9 14 1007.2 1007.0 0.0
20/10:30am 29.7 31.3 20.8 58 5.9 NW 13 26 7 14 1007.7 1007.5 0.0
20/10:00am 28.8 31.4 21.2 63 5.1 NNW 9 15 5 8 1008.2 1008.0 0.0
20/09:30am 27.8 30.8 21.2 67 4.4 NW 7 11 4 6 1008.5 1008.3 0.0
20/09:00am 27.3 30.1 21.6 71 3.8 ENE 9 13 5 7 1008.7 1008.5 0.0
20/08:30am 26.6 30.0 21.0 71 3.7 NW 4 9 2 5 1009.2 1009.0 0.0
20/08:00am 25.2 28.6 21.6 80 2.4 NE 6 9 3 5 1009.4 1009.2 0.0
20/07:30am 24.2 26.9 21.3 84 1.9 ENE 9 11 5 6 1009.7 1009.5 0.0
20/07:00am 24.7 28.8 20.7 78 2.6 CALM 0 0 0 0 1009.9 1009.7 0.0
20/06:30am 24.6 28.8 21.0 80 2.4 CALM 0 0 0 0 1009.6 1009.4 0.0
20/06:00am 24.2 28.5 21.2 83 2.0 CALM 0 0 0 0 1009.3 1009.1 0.0
20/05:30am 24.1 28.2 20.7 81 2.2 CALM 0 0 0 0 1009.1 1008.9 0.0
20/05:00am 24.3 28.6 21.1 82 2.1 CALM 0 0 0 0 1008.8 1008.6 0.0
20/04:30am 24.1 28.2 20.7 81 2.2 CALM 0 0 0 0 1008.4 1008.2 0.0
20/04:00am 24.4 28.6 20.9 81 2.3 CALM 0 0 0 0 1008.3 1008.1 0.0
20/03:30am 24.2 28.3 20.7 81 2.3 CALM 0 0 0 0 1008.2 1008.0 0.0
20/03:00am 24.5 28.6 20.7 79 2.5 CALM 0 0 0 0 1008.4 1008.2 0.0
20/02:30am 24.4 26.9 20.3 78 2.7 ESE 7 9 4 5 1008.6 1008.4 0.0
20/02:00am 24.6 26.6 20.0 75 3.0 ESE 9 11 5 6 1008.8 1008.6 0.0
20/01:30am 24.6 26.4 19.6 73 3.2 E 9 13 5 7 1008.9 1008.7 0.0
20/01:00am 24.7 26.1 19.6 73 3.3 ENE 11 17 6 9 1009.1 1008.9 0.0
20/12:30am 24.8 26.2 19.5 72 3.4 ENE 11 15 6 8 1009.4 1009.2 0.0
20/12:00am 24.8 26.6 19.5 72 3.4 E 9 15 5 8 1009.5 1009.3 0.0
 
Date/Time
EST
Temp
°C
App
Temp
°C
Dew
Point
°C
Rel
Hum
%
Delta-T
°C
Wind Press
QNH
hPa
Press
MSL
hPa
Rain since
9am
mm
Dir  Spd
km/h
Gust
km/h
Spd
kts
Gust
kts
19/11:30pm 25.0 26.3 19.4 71 3.6 E 11 15 6 8 1010.0 1009.8 0.0
19/11:00pm 25.1 27.2 19.3 70 3.7 E 7 11 4 6 1010.4 1010.2 0.0
19/10:30pm 25.2 26.8 19.1 69 3.9 ENE 9 11 5 6 1010.7 1010.6 0.0
19/10:00pm 25.3 26.9 19.2 69 3.9 E 9 13 5 7 1010.7 1010.6 0.0
19/09:30pm 25.5 26.6 18.8 66 4.3 ENE 11 15 6 8 1011.0 1010.9 0.0
19/09:00pm 25.5 25.7 18.6 65 4.4 ENE 15 19 8 10 1010.9 1010.8 0.0
19/08:30pm 25.6 26.6 18.7 65 4.4 ENE 11 15 6 8 1010.9 1010.8 0.0
19/08:00pm 25.8 26.3 19.3 67 4.2 ENE 15 24 8 13 1010.5 1010.4 0.0
19/07:30pm 26.1 26.0 19.6 67 4.2 ENE 19 28 10 15 1010.1 1009.9 0.0
19/07:00pm 26.5 26.7 19.4 65 4.6 ENE 17 26 9 14 1009.8 1009.6 0.0
19/06:30pm 27.1 26.7 19.4 62 5.0 ENE 20 28 11 15 1009.2 1009.0 0.0
19/06:00pm 27.8 27.1 19.5 60 5.4 ENE 22 30 12 16 1008.8 1008.6 0.0
19/05:30pm 28.5 27.7 20.0 60 5.6 ENE 24 33 13 18 1008.4 1008.2 0.0
19/05:00pm 28.6 29.0 19.9 59 5.7 ENE 17 24 9 13 1008.3 1008.1 0.0
19/04:30pm 28.9 28.9 19.7 57 6.0 ENE 19 26 10 14 1007.9 1007.7 0.0
19/04:00pm 29.5 29.4 19.9 56 6.3 E 20 26 11 14 1007.6 1007.4 0.0
19/03:30pm 29.7 29.5 19.8 55 6.5 NE 20 30 11 16 1007.8 1007.6 0.0
19/03:00pm 30.5 30.0 20.8 56 6.5 ENE 24 32 13 17 1008.1 1007.9 0.0
19/02:30pm 30.6 31.2 21.0 56 6.4 ENE 19 30 10 16 1008.5 1008.3 0.0
19/02:00pm 30.8 31.6 21.3 57 6.4 ENE 19 24 10 13 1009.0 1008.8 0.0
19/01:30pm 30.6 31.9 21.7 59 6.0 ENE 17 22 9 12 1009.2 1009.0 0.0
19/01:00pm 30.0 31.3 22.4 63 5.2 ENE 19 24 10 13 1009.3 1009.1 0.0
19/12:30pm 30.2 32.4 22.6 63 5.2 E 15 20 8 11 1009.4 1009.2 0.0
19/12:00pm 30.7 32.8 21.0 56 6.5 ENE 11 15 6 8 1009.6 1009.4 0.0
19/11:30am 30.8 33.5 21.3 57 6.4 E 9 13 5 7 1010.0 1009.8 0.0
19/11:00am 30.6 33.4 21.5 58 6.1 SSE 9 13 5 7 1010.1 1009.9 0.0
19/10:30am 30.4 33.2 21.5 59 6.0 S 9 13 5 7 1010.2 1010.0 0.0
19/10:00am 30.0 32.4 20.8 57 6.1 ENE 9 13 5 7 1010.4 1010.2 0.0
19/09:30am 29.9 32.5 21.2 59 5.8 E 9 13 5 7 1010.6 1010.5 0.0
19/09:00am 29.3 32.6 21.4 62 5.3 SSE 6 15 3 8 1010.5 1010.4 0.0
19/08:30am 28.7 31.0 21.4 64 4.9 SE 11 15 6 8 1010.6 1010.5 0.0
19/08:00am 28.6 30.9 22.1 68 4.4 S 13 17 7 9 1010.6 1010.5 0.0
19/07:30am 28.7 32.0 22.5 69 4.2 S 9 15 5 8 1010.5 1010.4 0.0
19/07:00am 28.1 32.3 22.5 71 3.8 SW 4 9 2 5 1010.2 1010.0 0.0
19/06:30am 27.1 31.6 23.9 82 2.2 SSW 7 9 4 5 1010.1 1009.9 0.0
19/06:00am 25.8 30.2 23.8 89 1.4 SSW 7 9 4 5 1009.7 1009.5 0.0
19/05:30am 24.7 28.4 23.2 91 1.0 SSW 9 13 5 7 1009.3 1009.1 0.0
19/05:29am 24.7 28.8 23.2 91 1.0 S 7 13 4 7 1009.3 1009.1 0.0
19/05:00am 24.5 28.4 22.9 91 1.1 S 7 9 4 5 1008.9 1008.7 0.0
19/04:30am 24.2 27.7 22.9 92 0.9 SSW 9 13 5 7 1008.4 1008.2 0.0
19/04:28am 24.2 27.7 22.9 92 0.9 SSW 9 13 5 7 1008.4 1008.2 0.0
19/04:00am 23.9 27.2 22.6 92 0.9 NNE 9 13 5 7 1007.6 1007.4 0.0
19/03:30am 24.5 27.9 22.7 90 1.2 E 9 13 5 7 1007.5 1007.3 0.0
19/03:00am 24.0 28.0 22.8 93 0.8 SSE 6 15 3 8 1007.0 1006.8 0.0
19/02:30am 24.2 28.9 22.7 91 1.0 S 2 7 1 4 1006.5 1006.3 0.0
19/02:00am 24.0 29.2 22.8 93 0.8 CALM 0 0 0 0 1006.4 1006.2 0.0
19/01:30am 23.9 29.1 22.9 94 0.7 CALM 0 0 0 0 1006.5 1006.3 0.0
19/01:00am 24.9 30.1 22.8 88 1.4 CALM 0 0 0 0 1007.0 1006.8 0.0
19/12:30am 24.7 29.9 22.9 90 1.2 CALM 0 0 0 0 1007.3 1007.1 0.0
19/12:00am 25.5 30.9 23.3 88 1.5 CALM 0 0 0 0 1007.5 1007.3 0.0
 
Date/Time
EST
Temp
°C
App
Temp
°C
Dew
Point
°C
Rel
Hum
%
Delta-T
°C
Wind Press
QNH
hPa
Press
MSL
hPa
Rain since
9am
mm
Dir  Spd
km/h
Gust
km/h
Spd
kts
Gust
kts
18/11:30pm 25.4 30.6 22.9 86 1.7 CALM 0 0 0 0 1007.6 1007.4 0.0
18/11:00pm 26.1 30.6 23.0 83 2.1 SSE 4 7 2 4 1007.9 1007.7 0.0
18/10:30pm 27.0 30.5 22.9 78 2.8 SSE 9 11 5 6 1008.2 1008.0 0.0
18/10:00pm 27.4 31.0 23.0 77 3.0 S 9 11 5 6 1008.3 1008.1 0.0
18/09:30pm 27.0 30.9 23.0 79 2.7 SE 7 7 4 4 1008.0 1007.8 0.0
18/09:00pm 28.1 31.7 23.0 74 3.5 ESE 9 11 5 6 1007.9 1007.7 0.0
18/08:30pm 28.5 32.2 23.3 73 3.6 ENE 9 11 5 6 1007.6 1007.4 0.0
18/08:00pm 29.4 32.8 23.3 69 4.2 E 11 13 6 7 1007.3 1007.1 0.0
18/07:30pm 30.1 33.7 23.1 66 4.8 E 9 13 5 7 1007.1 1006.9 0.0
18/07:00pm 31.1 33.6 22.5 60 5.9 ENE 13 17 7 9 1006.8 1006.6 0.0
18/06:30pm 32.1 33.4 22.3 56 6.7 ENE 19 26 10 14 1006.6 1006.4 0.0
18/06:00pm 33.5 33.8 21.6 49 8.1 ENE 22 28 12 15 1006.5 1006.3 0.0
18/05:30pm 34.2 35.3 22.4 50 8.1 ENE 20 26 11 14 1006.3 1006.1 0.0
18/05:00pm 35.3 36.0 21.5 44 9.4 NE 20 26 11 14 1006.2 1006.0 0.0
18/04:30pm 36.6 39.0 20.8 39 10.7 ENE 9 15 5 8 1006.3 1006.1 0.0
18/04:00pm 36.2 38.3 21.0 41 10.3 NE 11 17 6 9 1006.4 1006.2 0.0
18/03:30pm 36.1 38.2 20.9 41 10.3 NE 11 15 6 8 1006.9 1006.7 0.0
18/03:00pm 35.8 38.5 20.7 41 10.2 N 7 15 4 8 1007.3 1007.1 0.0
18/02:30pm 35.7 37.6 20.6 41 10.2 NNE 11 20 6 11 1007.8 1007.6 0.0
18/02:00pm 35.6 37.7 21.7 44 9.5 NNE 13 17 7 9 1008.3 1008.1 0.0
18/01:30pm 35.2 37.2 22.3 47 8.9 NNW 15 20 8 11 1008.8 1008.6 0.0
18/01:00pm 34.4 35.9 21.3 46 8.9 NNW 15 22 8 12 1009.3 1009.1 0.0
18/12:30pm 34.3 35.9 21.5 47 8.7 NW 15 28 8 15 1009.8 1009.6 0.0
18/12:00pm 33.4 33.9 20.9 48 8.4 NNW 19 30 10 16 1010.6 1010.5 0.0
18/11:30am 32.3 33.1 20.6 50 7.8 NW 17 28 9 15 1011.1 1011.0 0.0
18/11:00am 31.9 31.8 20.8 51 7.4 NW 22 32 12 17 1011.6 1011.5 0.0
18/10:30am 31.4 30.9 20.8 53 7.1 NW 24 33 13 18 1012.1 1012.0 0.0
18/10:00am 31.2 31.1 20.7 53 7.0 NW 22 28 12 15 1012.6 1012.5 0.0
18/09:30am 29.4 28.9 20.0 57 6.2 NW 22 30 12 16 1013.0 1012.9 0.0
18/09:00am 28.2 28.6 19.9 60 5.4 NNW 17 28 9 15 1013.4 1013.3 0.0
18/08:30am 27.5 28.1 20.2 64 4.8 NNW 17 26 9 14 1013.8 1013.7 0.0
18/08:00am 26.5 26.6 19.9 67 4.3 NW 19 24 10 13 1014.0 1013.9 0.0
18/07:30am 25.6 28.1 21.1 76 3.0 NNW 9 15 5 8 1014.1 1014.0 0.0
18/07:00am 24.0 26.7 20.6 81 2.2 SE 7 9 4 5 1014.2 1014.1 0.0
18/06:30am 23.1 27.5 21.4 90 1.1 CALM 0 0 0 0 1014.0 1013.9 0.0
18/06:00am 21.7 25.1 20.9 95 0.5 SSW 4 7 2 4 1013.9 1013.8 0.0
18/05:30am 20.8 - 20.2 96 0.4 - - - - - 1013.5 1013.4 -
18/05:00am 20.9 24.8 20.3 96 0.4 CALM 0 0 0 0 1013.2 1013.1 0.0
18/04:30am 20.8 24.6 20.2 96 0.4 CALM 0 0 0 0 1013.0 1012.9 0.0
18/04:00am 21.1 25.1 20.6 97 0.3 CALM 0 0 0 0 1012.9 1012.8 0.0
18/03:30am 21.4 25.5 20.8 96 0.4 CALM 0 0 0 0 1012.8 1012.7 0.0
18/03:00am 21.6 25.7 20.8 95 0.5 CALM 0 0 0 0 1012.8 1012.7 0.0
18/02:30am 21.4 25.4 20.6 95 0.5 CALM 0 0 0 0 1012.8 1012.7 0.0
18/02:00am 21.9 26.0 20.8 93 0.7 CALM 0 0 0 0 1013.0 1012.9 0.0
18/01:30am 22.0 26.3 21.1 95 0.6 CALM 0 0 0 0 1013.3 1013.2 0.0
18/01:00am 22.1 26.3 21.0 93 0.7 CALM 0 0 0 0 1013.4 1013.3 0.0
18/12:30am 22.4 26.6 21.0 92 0.9 CALM 0 0 0 0 1013.7 1013.6 0.0
18/12:00am 22.8 26.8 21.3 91 1.0 E 2 6 1 3 1014.0 1013.9 0.0
 
Date/Time
EST
Temp
°C
App
Temp
°C
Dew
Point
°C
Rel
Hum
%
Delta-T
°C
Wind Press
QNH
hPa
Press
MSL
hPa
Rain since
9am
mm
Dir  Spd
km/h
Gust
km/h
Spd
kts
Gust
kts
17/11:30pm 23.6 26.5 21.0 85 1.7 E 7 9 4 5 1014.2 1014.1 0.0
17/11:00pm 23.5 26.4 21.1 86 1.6 ESE 7 9 4 5 1014.6 1014.5 0.0
17/10:30pm 24.3 26.8 21.1 82 2.1 E 9 11 5 6 1014.7 1014.6 0.0
17/10:00pm 25.1 27.1 20.8 77 2.8 ENE 11 13 6 7 1014.8 1014.7 0.0
17/09:30pm 25.4 26.7 20.8 75 3.0 ENE 15 19 8 10 1014.8 1014.7 0.0
17/09:00pm 25.7 27.2 21.2 76 3.0 ENE 15 17 8 9 1014.7 1014.6 0.0
17/08:30pm 26.2 27.5 20.9 72 3.5 ENE 15 19 8 10 1014.6 1014.5 0.0
17/08:00pm 26.6 27.5 20.8 70 3.8 ENE 17 26 9 14 1014.3 1014.2 0.0
17/07:30pm 27.2 27.6 21.0 69 4.1 ENE 20 26 11 14 1014.2 1014.1 0.0
17/07:00pm 28.0 28.5 20.9 65 4.7 ENE 19 26 10 14 1013.8 1013.7 0.0
17/06:30pm 28.7 28.7 20.9 62 5.2 ENE 22 32 12 17 1013.5 1013.4 0.0
17/06:00pm 29.8 29.4 20.9 59 5.9 ENE 24 33 13 18 1013.2 1013.1 0.0
17/05:30pm 30.6 30.9 20.7 55 6.6 NE 20 30 11 16 1012.9 1012.8 0.0
17/05:00pm 31.1 31.5 20.9 54 6.8 NE 20 28 11 15 1012.9 1012.8 0.0
17/04:30pm 31.3 31.2 19.9 50 7.5 ENE 20 28 11 15 1012.8 1012.7 0.0
17/04:00pm 32.1 32.1 20.9 51 7.5 ENE 22 30 12 16 1012.9 1012.8 0.0

Other Formats:

Comma delimited format used in spreadsheet applications
http://www.bom.gov.au/fwo/IDQ60801/IDQ60801.94568.axf

JavaScript Object Notation format (JSON) in row-major order
http://www.bom.gov.au/fwo/IDQ60801/IDQ60801.94568.json